Lissie, Texas
Current Conditions -  °F | °C
As of 12:35 AM on Thursday 27 Nov 2014 (Local Time) from KELA Reporting Station
Clear Clear  
Wind Chill: 47°   Ceiling: Unl
Heat Index: 50°   Visibility: 10mi
Dew Point: 44°   Wind: 7mph
Humidity: 80%   Direction: 310°NW
Pressure: 30.34"   Gusts: NA
Location:  29.56°N, 96.23°W
Report Text: KELA 270635Z AUTO 31006KT 10SM CLR 10/07 A3034 RMK AO2 T00990066
Loading
Personal Weather Stations






























Interactive Weather Map New forecast layout! Learn more

10-Day Weather Forecast

Advertisements
Track Severe Weather on mobile